sensor_id;sensor_type;location;lat;lon;timestamp;pressure;altitude;pressure_sealevel;temperature;humidity
20612;BME280;10465;42.686;23.364;2024-01-30T00:00:40;96866.16;;;2.03;59.80
20612;BME280;10465;42.686;23.364;2024-01-30T00:03:06;96915.78;;;2.22;60.35
20612;BME280;10465;42.686;23.364;2024-01-30T00:05:31;96915.59;;;2.17;60.39
20612;BME280;10465;42.686;23.364;2024-01-30T00:07:57;96913.59;;;2.19;60.25
20612;BME280;10465;42.686;23.364;2024-01-30T00:10:22;96926.63;;;2.26;60.63
20612;BME280;10465;42.686;23.364;2024-01-30T00:12:47;96943.13;;;2.40;60.75
20612;BME280;10465;42.686;23.364;2024-01-30T00:15:13;96943.94;;;2.40;59.98
20612;BME280;10465;42.686;23.364;2024-01-30T00:17:38;96906.75;;;2.12;59.78
20612;BME280;10465;42.686;23.364;2024-01-30T00:20:04;96942.72;;;2.30;60.37
20612;BME280;10465;42.686;23.364;2024-01-30T00:22:33;96935.50;;;2.32;60.02
20612;BME280;10465;42.686;23.364;2024-01-30T00:24:58;96948.38;;;2.40;60.09
20612;BME280;10465;42.686;23.364;2024-01-30T00:27:23;96926.03;;;2.31;59.95
20612;BME280;10465;42.686;23.364;2024-01-30T00:29:49;96944.34;;;2.44;59.93
20612;BME280;10465;42.686;23.364;2024-01-30T00:32:14;96947.75;;;2.51;59.82
20612;BME280;10465;42.686;23.364;2024-01-30T00:34:41;96943.13;;;2.46;59.34
20612;BME280;10465;42.686;23.364;2024-01-30T00:37:07;96949.16;;;2.54;59.62
20612;BME280;10465;42.686;23.364;2024-01-30T00:39:32;96946.94;;;2.57;59.91
20612;BME280;10465;42.686;23.364;2024-01-30T00:41:57;96940.91;;;2.57;60.05
20612;BME280;10465;42.686;23.364;2024-01-30T00:44:23;96937.50;;;2.56;59.11
20612;BME280;10465;42.686;23.364;2024-01-30T00:46:48;96926.66;;;2.33;59.06
20612;BME280;10465;42.686;23.364;2024-01-30T00:49:14;96948.16;;;2.41;58.97
20612;BME280;10465;42.686;23.364;2024-01-30T00:51:40;96952.19;;;2.44;58.84
20612;BME280;10465;42.686;23.364;2024-01-30T00:54:05;96945.94;;;2.52;58.53
20612;BME280;10465;42.686;23.364;2024-01-30T00:56:31;96924.84;;;2.40;58.24
20612;BME280;10465;42.686;23.364;2024-01-30T00:58:57;96931.28;;;2.44;58.21
20612;BME280;10465;42.686;23.364;2024-01-30T01:01:22;96911.19;;;2.31;58.83
20612;BME280;10465;42.686;23.364;2024-01-30T01:03:48;96942.13;;;2.41;59.29
20612;BME280;10465;42.686;23.364;2024-01-30T01:06:13;96932.09;;;2.25;59.46
20612;BME280;10465;42.686;23.364;2024-01-30T01:08:39;96866.16;;;1.76;59.86
20612;BME280;10465;42.686;23.364;2024-01-30T01:11:05;96937.13;;;2.19;59.87
20612;BME280;10465;42.686;23.364;2024-01-30T01:13:30;96854.69;;;1.64;59.84
20612;BME280;10465;42.686;23.364;2024-01-30T01:15:55;96947.97;;;2.16;60.33
20612;BME280;10465;42.686;23.364;2024-01-30T01:18:21;96949.97;;;2.14;60.33
20612;BME280;10465;42.686;23.364;2024-01-30T01:20:46;96945.16;;;2.11;60.31
20612;BME280;10465;42.686;23.364;2024-01-30T01:23:12;96922.44;;;1.98;60.40
20612;BME280;10465;42.686;23.364;2024-01-30T01:25:37;96895.88;;;1.75;61.04
20612;BME280;10465;42.686;23.364;2024-01-30T01:28:03;96928.84;;;1.96;60.98
20612;BME280;10465;42.686;23.364;2024-01-30T01:30:29;96896.50;;;1.70;61.37
20612;BME280;10465;42.686;23.364;2024-01-30T01:32:55;96943.53;;;2.04;60.79
20612;BME280;10465;42.686;23.364;2024-01-30T01:35:24;96955.59;;;2.05;60.46
20612;BME280;10465;42.686;23.364;2024-01-30T01:37:51;96960.19;;;1.96;60.60
20612;BME280;10465;42.686;23.364;2024-01-30T01:40:25;96945.94;;;1.98;60.43
20612;BME280;10465;42.686;23.364;2024-01-30T01:42:51;96948.53;;;1.92;60.43
20612;BME280;10465;42.686;23.364;2024-01-30T01:45:18;96938.69;;;1.87;60.05
20612;BME280;10465;42.686;23.364;2024-01-30T01:47:44;96943.69;;;1.82;60.33
20612;BME280;10465;42.686;23.364;2024-01-30T01:50:15;96925.22;;;1.70;60.74
20612;BME280;10465;42.686;23.364;2024-01-30T01:52:44;96906.09;;;1.63;60.76
20612;BME280;10465;42.686;23.364;2024-01-30T01:55:12;96931.63;;;1.81;60.57
20612;BME280;10465;42.686;23.364;2024-01-30T01:57:38;96936.84;;;1.81;60.39
20612;BME280;10465;42.686;23.364;2024-01-30T02:00:04;96951.34;;;1.84;60.78
20612;BME280;10465;42.686;23.364;2024-01-30T02:02:30;96943.88;;;1.74;60.96
20612;BME280;10465;42.686;23.364;2024-01-30T02:05:00;96947.50;;;1.66;60.88
20612;BME280;10465;42.686;23.364;2024-01-30T02:07:27;96951.50;;;1.69;60.94
20612;BME280;10465;42.686;23.364;2024-01-30T02:09:53;96919.94;;;1.51;61.00
20612;BME280;10465;42.686;23.364;2024-01-30T02:12:18;96918.72;;;1.46;61.04
20612;BME280;10465;42.686;23.364;2024-01-30T02:14:47;96891.94;;;1.24;61.10
20612;BME280;10465;42.686;23.364;2024-01-30T02:17:14;96945.47;;;1.68;61.45
20612;BME280;10465;42.686;23.364;2024-01-30T02:19:40;96944.88;;;1.66;61.85
20612;BME280;10465;42.686;23.364;2024-01-30T02:22:05;96946.66;;;1.66;62.22
20612;BME280;10465;42.686;23.364;2024-01-30T02:24:31;96924.16;;;1.65;62.00
20612;BME280;10465;42.686;23.364;2024-01-30T02:26:56;96907.72;;;1.64;61.97
20612;BME280;10465;42.686;23.364;2024-01-30T02:29:22;96942.09;;;1.88;61.47
20612;BME280;10465;42.686;23.364;2024-01-30T02:31:47;96928.66;;;1.91;60.90
20612;BME280;10465;42.686;23.364;2024-01-30T02:34:13;96935.47;;;2.05;60.43
20612;BME280;10465;42.686;23.364;2024-01-30T02:36:42;96945.94;;;2.18;59.71
20612;BME280;10465;42.686;23.364;2024-01-30T02:39:09;96942.94;;;2.15;59.58
20612;BME280;10465;42.686;23.364;2024-01-30T02:41:35;96948.56;;;2.25;59.03
20612;BME280;10465;42.686;23.364;2024-01-30T02:44:01;96935.88;;;2.22;58.82
20612;BME280;10465;42.686;23.364;2024-01-30T02:46:26;96930.69;;;2.15;58.81
20612;BME280;10465;42.686;23.364;2024-01-30T02:48:52;96952.38;;;2.16;58.70
20612;BME280;10465;42.686;23.364;2024-01-30T02:51:17;96943.94;;;2.07;58.60
20612;BME280;10465;42.686;23.364;2024-01-30T02:53:42;96882.63;;;1.77;58.56
20612;BME280;10465;42.686;23.364;2024-01-30T02:56:08;96957.41;;;2.17;58.33
20612;BME280;10465;42.686;23.364;2024-01-30T02:58:36;96935.31;;;2.07;58.06
20612;BME280;10465;42.686;23.364;2024-01-30T03:01:02;96949.38;;;2.19;58.75
20612;BME280;10465;42.686;23.364;2024-01-30T03:03:27;96933.91;;;2.11;59.22
20612;BME280;10465;42.686;23.364;2024-01-30T03:05:53;96946.53;;;2.14;59.26
20612;BME280;10465;42.686;23.364;2024-01-30T03:08:18;96918.00;;;1.99;59.06
20612;BME280;10465;42.686;23.364;2024-01-30T03:10:43;96940.53;;;2.07;59.46
20612;BME280;10465;42.686;23.364;2024-01-30T03:13:09;96948.56;;;1.98;59.50
20612;BME280;10465;42.686;23.364;2024-01-30T03:15:34;96932.25;;;1.96;59.26
20612;BME280;10465;42.686;23.364;2024-01-30T03:17:59;96944.50;;;1.89;59.48
20612;BME280;10465;42.686;23.364;2024-01-30T03:20:25;96942.94;;;1.95;59.54
20612;BME280;10465;42.686;23.364;2024-01-30T03:22:50;96899.88;;;1.78;59.18
20612;BME280;10465;42.686;23.364;2024-01-30T03:25:16;96911.97;;;1.79;60.29
20612;BME280;10465;42.686;23.364;2024-01-30T03:27:41;96933.47;;;1.87;60.33
20612;BME280;10465;42.686;23.364;2024-01-30T03:30:07;96943.91;;;1.94;60.31
20612;BME280;10465;42.686;23.364;2024-01-30T03:32:33;96914.97;;;1.89;60.42
20612;BME280;10465;42.686;23.364;2024-01-30T03:34:58;96930.28;;;1.98;60.51
20612;BME280;10465;42.686;23.364;2024-01-30T03:37:24;96933.88;;;1.97;60.35
20612;BME280;10465;42.686;23.364;2024-01-30T03:39:49;96923.63;;;1.96;59.75
20612;BME280;10465;42.686;23.364;2024-01-30T03:42:15;96923.81;;;1.94;59.72
20612;BME280;10465;42.686;23.364;2024-01-30T03:44:41;96914.97;;;1.82;59.78
20612;BME280;10465;42.686;23.364;2024-01-30T03:47:06;96936.25;;;1.86;59.23
20612;BME280;10465;42.686;23.364;2024-01-30T03:49:31;96929.22;;;1.86;58.91
20612;BME280;10465;42.686;23.364;2024-01-30T03:51:57;96920.81;;;1.91;58.46
20612;BME280;10465;42.686;23.364;2024-01-30T03:54:22;96904.50;;;1.82;58.34
20612;BME280;10465;42.686;23.364;2024-01-30T03:56:48;96881.22;;;1.67;57.46
20612;BME280;10465;42.686;23.364;2024-01-30T03:59:13;96889.63;;;1.69;57.14
20612;BME280;10465;42.686;23.364;2024-01-30T04:01:38;96920.59;;;1.79;57.63
20612;BME280;10465;42.686;23.364;2024-01-30T04:04:04;96925.03;;;1.79;57.66
20612;BME280;10465;42.686;23.364;2024-01-30T04:06:29;96909.91;;;1.74;57.61
20612;BME280;10465;42.686;23.364;2024-01-30T04:08:55;96912.56;;;1.87;57.39
20612;BME280;10465;42.686;23.364;2024-01-30T04:11:20;96902.72;;;1.83;57.32
20612;BME280;10465;42.686;23.364;2024-01-30T04:13:45;96896.88;;;1.81;57.57
20612;BME280;10465;42.686;23.364;2024-01-30T04:16:22;96902.31;;;1.79;58.26
20612;BME280;10465;42.686;23.364;2024-01-30T04:18:48;96928.03;;;1.89;58.13
20612;BME280;10465;42.686;23.364;2024-01-30T04:21:14;96912.94;;;1.78;57.77
20612;BME280;10465;42.686;23.364;2024-01-30T04:23:40;96919.19;;;1.83;57.90
20612;BME280;10465;42.686;23.364;2024-01-30T04:26:06;96915.56;;;1.78;58.23
20612;BME280;10465;42.686;23.364;2024-01-30T04:28:31;96912.94;;;1.78;58.86
20612;BME280;10465;42.686;23.364;2024-01-30T04:30:57;96929.44;;;1.85;58.56
20612;BME280;10465;42.686;23.364;2024-01-30T04:33:22;96934.66;;;1.85;58.43
20612;BME280;10465;42.686;23.364;2024-01-30T04:35:47;96909.53;;;1.70;57.82
20612;BME280;10465;42.686;23.364;2024-01-30T04:38:13;96923.00;;;1.81;57.83
20612;BME280;10465;42.686;23.364;2024-01-30T04:40:40;96923.38;;;1.78;58.28
20612;BME280;10465;42.686;23.364;2024-01-30T04:43:05;96897.06;;;1.59;58.92
20612;BME280;10465;42.686;23.364;2024-01-30T04:45:31;96938.47;;;1.82;58.81
20612;BME280;10465;42.686;23.364;2024-01-30T04:47:56;96937.47;;;1.83;58.51
20612;BME280;10465;42.686;23.364;2024-01-30T04:50:23;96905.69;;;1.60;58.50
20612;BME280;10465;42.686;23.364;2024-01-30T04:52:48;96928.00;;;1.69;58.21
20612;BME280;10465;42.686;23.364;2024-01-30T04:55:14;96914.31;;;1.60;57.89
20612;BME280;10465;42.686;23.364;2024-01-30T04:57:39;96933.22;;;1.69;57.65
20612;BME280;10465;42.686;23.364;2024-01-30T05:00:05;96945.31;;;1.83;57.78
20612;BME280;10465;42.686;23.364;2024-01-30T05:02:31;96953.75;;;1.85;57.32
20612;BME280;10465;42.686;23.364;2024-01-30T05:04:57;96954.72;;;1.78;57.06
20612;BME280;10465;42.686;23.364;2024-01-30T05:07:24;96885.94;;;1.31;57.30
20612;BME280;10465;42.686;23.364;2024-01-30T05:09:50;96955.34;;;1.80;57.82
20612;BME280;10465;42.686;23.364;2024-01-30T05:12:15;96902.44;;;1.44;57.34
20612;BME280;10465;42.686;23.364;2024-01-30T05:14:40;96957.38;;;1.84;57.08
20612;BME280;10465;42.686;23.364;2024-01-30T05:17:06;96935.06;;;1.75;56.90
20612;BME280;10465;42.686;23.364;2024-01-30T05:19:33;96944.91;;;1.86;56.53
20612;BME280;10465;42.686;23.364;2024-01-30T05:21:58;96957.78;;;1.94;56.37
20612;BME280;10465;42.686;23.364;2024-01-30T05:24:23;96965.03;;;1.99;56.30
20612;BME280;10465;42.686;23.364;2024-01-30T05:26:49;96949.94;;;1.94;56.84
20612;BME280;10465;42.686;23.364;2024-01-30T05:29:16;96958.38;;;1.96;56.75
20612;BME280;10465;42.686;23.364;2024-01-30T05:31:41;96954.78;;;1.91;56.73
20612;BME280;10465;42.686;23.364;2024-01-30T05:34:07;96961.22;;;1.95;56.84
20612;BME280;10465;42.686;23.364;2024-01-30T05:36:33;96946.50;;;1.81;56.97
20612;BME280;10465;42.686;23.364;2024-01-30T05:38:59;96958.19;;;1.91;57.28
20612;BME280;10465;42.686;23.364;2024-01-30T05:41:24;96964.00;;;1.93;57.31
20612;BME280;10465;42.686;23.364;2024-01-30T05:43:50;96961.56;;;1.85;57.53
20612;BME280;10465;42.686;23.364;2024-01-30T05:46:15;96936.44;;;1.64;57.65
20612;BME280;10465;42.686;23.364;2024-01-30T05:48:40;96952.53;;;1.75;58.02
20612;BME280;10465;42.686;23.364;2024-01-30T05:51:07;96963.19;;;1.80;58.72
20612;BME280;10465;42.686;23.364;2024-01-30T05:53:33;96970.81;;;1.81;58.54
20612;BME280;10465;42.686;23.364;2024-01-30T05:56:02;96956.53;;;1.77;59.01
20612;BME280;10465;42.686;23.364;2024-01-30T05:58:28;96947.09;;;1.63;58.75
20612;BME280;10465;42.686;23.364;2024-01-30T06:00:53;96926.56;;;1.46;58.59
20612;BME280;10465;42.686;23.364;2024-01-30T06:03:19;96963.16;;;1.66;58.63
20612;BME280;10465;42.686;23.364;2024-01-30T06:05:44;96926.31;;;1.41;59.22
20612;BME280;10465;42.686;23.364;2024-01-30T06:08:10;96960.31;;;1.61;59.33
20612;BME280;10465;42.686;23.364;2024-01-30T06:10:35;96953.88;;;1.57;59.05
20612;BME280;10465;42.686;23.364;2024-01-30T06:13:01;96951.69;;;1.54;59.18
20612;BME280;10465;42.686;23.364;2024-01-30T06:15:27;96935.97;;;1.47;59.32
20612;BME280;10465;42.686;23.364;2024-01-30T06:17:55;96963.75;;;1.68;59.90
20612;BME280;10465;42.686;23.364;2024-01-30T06:20:20;96937.41;;;1.57;59.17
20612;BME280;10465;42.686;23.364;2024-01-30T06:22:45;96952.72;;;1.66;59.05
20612;BME280;10465;42.686;23.364;2024-01-30T06:25:11;96965.97;;;1.71;59.62
20612;BME280;10465;42.686;23.364;2024-01-30T06:27:37;96975.03;;;1.76;60.10
20612;BME280;10465;42.686;23.364;2024-01-30T06:30:03;96959.53;;;1.74;59.83
20612;BME280;10465;42.686;23.364;2024-01-30T06:32:37;96977.06;;;1.87;59.68
20612;BME280;10465;42.686;23.364;2024-01-30T06:35:04;96967.44;;;1.87;59.47
20612;BME280;10465;42.686;23.364;2024-01-30T06:37:31;96944.91;;;1.80;58.57
20612;BME280;10465;42.686;23.364;2024-01-30T06:39:56;96974.06;;;2.10;57.49
20612;BME280;10465;42.686;23.364;2024-01-30T06:42:21;96972.50;;;2.15;56.86
20612;BME280;10465;42.686;23.364;2024-01-30T06:44:47;96980.13;;;2.30;56.09
20612;BME280;10465;42.686;23.364;2024-01-30T06:47:12;96981.31;;;2.34;55.20
20612;BME280;10465;42.686;23.364;2024-01-30T06:49:38;96968.66;;;2.38;55.04
20612;BME280;10465;42.686;23.364;2024-01-30T06:52:05;96966.06;;;2.44;54.37
20612;BME280;10465;42.686;23.364;2024-01-30T06:54:30;96970.88;;;2.61;53.20
20612;BME280;10465;42.686;23.364;2024-01-30T06:56:56;96960.00;;;2.51;53.34
20612;BME280;10465;42.686;23.364;2024-01-30T06:59:21;96962.84;;;2.56;54.01
20612;BME280;10465;42.686;23.364;2024-01-30T07:01:47;96965.66;;;2.61;53.58
20612;BME280;10465;42.686;23.364;2024-01-30T07:04:12;96976.69;;;2.83;52.90
20612;BME280;10465;42.686;23.364;2024-01-30T07:06:38;96980.53;;;2.80;52.36
20612;BME280;10465;42.686;23.364;2024-01-30T07:09:03;96973.88;;;2.51;52.55
20612;BME280;10465;42.686;23.364;2024-01-30T07:11:28;96987.16;;;2.76;52.57
20612;BME280;10465;42.686;23.364;2024-01-30T07:13:54;96979.69;;;2.86;51.73
20612;BME280;10465;42.686;23.364;2024-01-30T07:16:19;96955.56;;;2.84;50.82
20612;BME280;10465;42.686;23.364;2024-01-30T07:18:45;96979.88;;;3.05;51.10
20612;BME280;10465;42.686;23.364;2024-01-30T07:21:11;96985.28;;;3.16;50.56
20612;BME280;10465;42.686;23.364;2024-01-30T07:23:36;96961.41;;;2.46;51.60
20612;BME280;10465;42.686;23.364;2024-01-30T07:26:04;96960.00;;;2.70;50.62
20612;BME280;10465;42.686;23.364;2024-01-30T07:28:30;96958.78;;;2.73;50.06
20612;BME280;10465;42.686;23.364;2024-01-30T07:30:55;96944.53;;;2.56;50.14
20612;BME280;10465;42.686;23.364;2024-01-30T07:33:21;96971.81;;;3.00;49.07
20612;BME280;10465;42.686;23.364;2024-01-30T07:35:46;96988.75;;;2.70;49.54
20612;BME280;10465;42.686;23.364;2024-01-30T07:38:12;96982.13;;;2.21;49.63
20612;BME280;10465;42.686;23.364;2024-01-30T07:40:37;96965.00;;;1.86;50.48
20612;BME280;10465;42.686;23.364;2024-01-30T07:43:03;96981.25;;;1.81;51.08
20612;BME280;10465;42.686;23.364;2024-01-30T07:45:29;96968.47;;;2.19;51.10
20612;BME280;10465;42.686;23.364;2024-01-30T07:47:58;96978.72;;;2.28;50.62
20612;BME280;10465;42.686;23.364;2024-01-30T07:50:25;96980.34;;;2.48;49.62
20612;BME280;10465;42.686;23.364;2024-01-30T07:52:50;96929.88;;;2.15;48.82
20612;BME280;10465;42.686;23.364;2024-01-30T07:55:20;96943.94;;;2.54;48.60
20612;BME280;10465;42.686;23.364;2024-01-30T07:57:45;96964.78;;;2.87;48.23
20612;BME280;10465;42.686;23.364;2024-01-30T08:00:11;96977.06;;;2.86;48.55
20612;BME280;10465;42.686;23.364;2024-01-30T08:02:37;96984.88;;;3.13;49.45
20612;BME280;10465;42.686;23.364;2024-01-30T08:05:03;96972.72;;;3.32;48.55
20612;BME280;10465;42.686;23.364;2024-01-30T08:07:28;96971.06;;;3.44;47.30
20612;BME280;10465;42.686;23.364;2024-01-30T08:09:55;96974.03;;;3.61;47.63
20612;BME280;10465;42.686;23.364;2024-01-30T08:12:20;96971.50;;;3.79;47.26
20612;BME280;10465;42.686;23.364;2024-01-30T08:14:45;96974.50;;;3.89;46.15
20612;BME280;10465;42.686;23.364;2024-01-30T08:17:11;96982.91;;;3.98;45.04
20612;BME280;10465;42.686;23.364;2024-01-30T08:19:36;96967.13;;;4.05;45.03
20612;BME280;10465;42.686;23.364;2024-01-30T08:22:02;96946.78;;;4.00;45.34
20612;BME280;10465;42.686;23.364;2024-01-30T08:24:27;96958.75;;;4.21;44.10
20612;BME280;10465;42.686;23.364;2024-01-30T08:26:53;96956.31;;;4.26;43.65
20612;BME280;10465;42.686;23.364;2024-01-30T08:29:18;96971.06;;;4.45;43.57
20612;BME280;10465;42.686;23.364;2024-01-30T08:31:44;96955.69;;;4.49;43.32
20612;BME280;10465;42.686;23.364;2024-01-30T08:34:11;96968.81;;;4.74;43.52
20612;BME280;10465;42.686;23.364;2024-01-30T08:36:36;96991.75;;;5.04;43.38
20612;BME280;10465;42.686;23.364;2024-01-30T08:39:02;96974.31;;;5.09;42.21
20612;BME280;10465;42.686;23.364;2024-01-30T08:41:28;96976.50;;;5.12;42.47
20612;BME280;10465;42.686;23.364;2024-01-30T08:43:53;96981.25;;;5.22;41.39
20612;BME280;10465;42.686;23.364;2024-01-30T08:46:19;96985.47;;;5.41;41.20
20612;BME280;10465;42.686;23.364;2024-01-30T08:48:46;96982.06;;;5.59;41.77
20612;BME280;10465;42.686;23.364;2024-01-30T08:51:12;96983.72;;;5.72;40.96
20612;BME280;10465;42.686;23.364;2024-01-30T08:53:37;96997.44;;;5.92;40.95
20612;BME280;10465;42.686;23.364;2024-01-30T08:56:03;96979.44;;;5.89;40.34
20612;BME280;10465;42.686;23.364;2024-01-30T08:58:29;96992.88;;;6.00;40.14
20612;BME280;10465;42.686;23.364;2024-01-30T09:00:54;96978.94;;;5.81;40.08
20612;BME280;10465;42.686;23.364;2024-01-30T09:03:20;96998.56;;;5.78;40.66
20612;BME280;10465;42.686;23.364;2024-01-30T09:05:45;96995.38;;;5.76;41.27
20612;BME280;10465;42.686;23.364;2024-01-30T09:08:11;96975.03;;;5.53;42.19
20612;BME280;10465;42.686;23.364;2024-01-30T09:10:36;96970.28;;;5.62;41.35
20612;BME280;10465;42.686;23.364;2024-01-30T09:13:02;96985.66;;;5.77;41.13
20612;BME280;10465;42.686;23.364;2024-01-30T09:15:28;96968.63;;;5.79;40.71
20612;BME280;10465;42.686;23.364;2024-01-30T09:17:54;96968.91;;;6.08;39.74
20612;BME280;10465;42.686;23.364;2024-01-30T09:20:19;96988.84;;;6.27;39.70
20612;BME280;10465;42.686;23.364;2024-01-30T09:22:45;96956.59;;;6.20;39.82
20612;BME280;10465;42.686;23.364;2024-01-30T09:25:11;96958.84;;;6.16;41.06
20612;BME280;10465;42.686;23.364;2024-01-30T09:27:36;96969.69;;;6.08;42.12
20612;BME280;10465;42.686;23.364;2024-01-30T09:30:02;96972.41;;;5.72;42.40
20612;BME280;10465;42.686;23.364;2024-01-30T09:32:28;96972.22;;;5.36;42.80
20612;BME280;10465;42.686;23.364;2024-01-30T09:34:53;96958.66;;;5.03;43.94
20612;BME280;10465;42.686;23.364;2024-01-30T09:37:19;96968.84;;;4.92;44.75
20612;BME280;10465;42.686;23.364;2024-01-30T09:39:45;96953.09;;;4.74;44.84
20612;BME280;10465;42.686;23.364;2024-01-30T09:44:37;96948.19;;;5.51;44.09
20612;BME280;10465;42.686;23.364;2024-01-30T09:47:03;96961.41;;;5.93;42.81
20612;BME280;10465;42.686;23.364;2024-01-30T09:49:34;96963.88;;;6.18;42.37
20612;BME280;10465;42.686;23.364;2024-01-30T09:52:02;96957.72;;;6.36;42.42
20612;BME280;10465;42.686;23.364;2024-01-30T09:54:31;96964.28;;;6.45;41.20
20612;BME280;10465;42.686;23.364;2024-01-30T09:56:57;96940.22;;;6.18;42.95
20612;BME280;10465;42.686;23.364;2024-01-30T09:59:23;96943.44;;;6.32;41.87
20612;BME280;10465;42.686;23.364;2024-01-30T10:01:50;96967.75;;;6.81;41.32
20612;BME280;10465;42.686;23.364;2024-01-30T10:04:16;96956.94;;;7.29;40.64
20612;BME280;10465;42.686;23.364;2024-01-30T10:06:42;96963.38;;;7.62;39.90
20612;BME280;10465;42.686;23.364;2024-01-30T10:09:07;96934.41;;;7.62;38.98
20612;BME280;10465;42.686;23.364;2024-01-30T10:11:35;96953.41;;;7.64;39.02
20612;BME280;10465;42.686;23.364;2024-01-30T10:14:01;96944.06;;;7.44;38.97
20612;BME280;10465;42.686;23.364;2024-01-30T10:16:26;96914.03;;;7.05;38.80
20612;BME280;10465;42.686;23.364;2024-01-30T10:18:52;96941.81;;;7.13;39.04
20612;BME280;10465;42.686;23.364;2024-01-30T10:21:17;96949.97;;;7.11;39.66
20612;BME280;10465;42.686;23.364;2024-01-30T10:23:43;96949.63;;;7.08;39.91
20612;BME280;10465;42.686;23.364;2024-01-30T10:26:10;96948.88;;;7.36;39.09
20612;BME280;10465;42.686;23.364;2024-01-30T10:28:36;96943.06;;;7.74;38.81
20612;BME280;10465;42.686;23.364;2024-01-30T10:31:01;96952.03;;;8.18;37.63
20612;BME280;10465;42.686;23.364;2024-01-30T10:33:32;96951.72;;;8.65;36.72
20612;BME280;10465;42.686;23.364;2024-01-30T10:36:02;96944.03;;;8.81;36.01
20612;BME280;10465;42.686;23.364;2024-01-30T10:38:29;96950.53;;;8.56;35.91
20612;BME280;10465;42.686;23.364;2024-01-30T10:40:59;96913.25;;;8.19;36.67
20612;BME280;10465;42.686;23.364;2024-01-30T10:43:54;96943.16;;;8.58;36.89
20612;BME280;10465;42.686;23.364;2024-01-30T10:46:27;96936.47;;;8.68;36.13
20612;BME280;10465;42.686;23.364;2024-01-30T10:48:58;96939.41;;;8.71;36.30
20612;BME280;10465;42.686;23.364;2024-01-30T10:51:26;96940.53;;;8.58;36.63
20612;BME280;10465;42.686;23.364;2024-01-30T10:53:52;96934.03;;;8.32;36.95
20612;BME280;10465;42.686;23.364;2024-01-30T10:56:20;96934.41;;;8.24;36.64
20612;BME280;10465;42.686;23.364;2024-01-30T10:58:46;96890.44;;;8.13;36.66
20612;BME280;10465;42.686;23.364;2024-01-30T11:01:12;96918.78;;;8.51;36.45
20612;BME280;10465;42.686;23.364;2024-01-30T11:03:38;96926.19;;;8.88;36.49
20612;BME280;10465;42.686;23.364;2024-01-30T11:06:04;96913.03;;;9.15;35.39
20612;BME280;10465;42.686;23.364;2024-01-30T11:08:32;96921.59;;;9.22;34.91
20612;BME280;10465;42.686;23.364;2024-01-30T11:10:58;96895.97;;;9.23;35.05
20612;BME280;10465;42.686;23.364;2024-01-30T11:13:30;96904.41;;;9.41;34.70
20612;BME280;10465;42.686;23.364;2024-01-30T11:16:02;96897.50;;;9.40;34.72
20612;BME280;10465;42.686;23.364;2024-01-30T11:18:32;96909.25;;;9.28;35.04
20612;BME280;10465;42.686;23.364;2024-01-30T11:20:59;96902.00;;;9.18;35.71
20612;BME280;10465;42.686;23.364;2024-01-30T11:23:27;96912.41;;;9.25;35.00
20612;BME280;10465;42.686;23.364;2024-01-30T11:25:53;96884.88;;;8.82;34.74
20612;BME280;10465;42.686;23.364;2024-01-30T11:28:20;96889.59;;;8.41;36.09
20612;BME280;10465;42.686;23.364;2024-01-30T11:30:46;96859.09;;;8.33;36.16
20612;BME280;10465;42.686;23.364;2024-01-30T11:33:13;96905.84;;;8.88;35.84
20612;BME280;10465;42.686;23.364;2024-01-30T11:35:44;96911.59;;;8.85;35.36
20612;BME280;10465;42.686;23.364;2024-01-30T11:38:14;96876.13;;;8.26;36.07
20612;BME280;10465;42.686;23.364;2024-01-30T11:40:40;96908.97;;;8.18;36.82
20612;BME280;10465;42.686;23.364;2024-01-30T11:43:07;96898.00;;;7.92;36.82
20612;BME280;10465;42.686;23.364;2024-01-30T11:45:33;96897.53;;;7.79;37.35
20612;BME280;10465;42.686;23.364;2024-01-30T11:47:59;96870.47;;;7.55;37.65
20612;BME280;10465;42.686;23.364;2024-01-30T11:50:34;96895.13;;;7.49;38.37
20612;BME280;10465;42.686;23.364;2024-01-30T11:53:00;96904.31;;;7.46;38.95
20612;BME280;10465;42.686;23.364;2024-01-30T11:55:26;96878.81;;;7.23;38.92
20612;BME280;10465;42.686;23.364;2024-01-30T11:57:55;96870.28;;;7.04;39.07
20612;BME280;10465;42.686;23.364;2024-01-30T12:00:21;96882.19;;;7.07;39.63
20612;BME280;10465;42.686;23.364;2024-01-30T12:02:54;96889.84;;;7.08;39.40
20612;BME280;10465;42.686;23.364;2024-01-30T12:05:24;96888.56;;;7.23;39.85
20612;BME280;10465;42.686;23.364;2024-01-30T12:07:50;96862.75;;;7.36;38.97
20612;BME280;10465;42.686;23.364;2024-01-30T12:10:16;96852.72;;;7.50;39.24
20612;BME280;10465;42.686;23.364;2024-01-30T12:12:45;96792.19;;;7.55;37.83
20612;BME280;10465;42.686;23.364;2024-01-30T12:15:11;96836.88;;;8.29;37.32
20612;BME280;10465;42.686;23.364;2024-01-30T12:17:37;96860.63;;;8.46;36.65
20612;BME280;10465;42.686;23.364;2024-01-30T12:20:09;96829.94;;;8.40;37.09
20612;BME280;10465;42.686;23.364;2024-01-30T12:22:48;96843.56;;;8.54;36.15
20612;BME280;10465;42.686;23.364;2024-01-30T12:25:15;96822.34;;;8.44;36.13
20612;BME280;10465;42.686;23.364;2024-01-30T12:27:45;96840.78;;;8.60;36.46
20612;BME280;10465;42.686;23.364;2024-01-30T12:30:13;96814.91;;;8.62;36.27
20612;BME280;10465;42.686;23.364;2024-01-30T12:32:41;96844.78;;;9.07;35.80
20612;BME280;10465;42.686;23.364;2024-01-30T12:35:11;96843.63;;;9.20;35.64
20612;BME280;10465;42.686;23.364;2024-01-30T12:37:38;96845.44;;;9.19;35.26
20612;BME280;10465;42.686;23.364;2024-01-30T12:40:04;96804.59;;;8.83;35.23
20612;BME280;10465;42.686;23.364;2024-01-30T12:42:31;96835.88;;;8.91;34.96
20612;BME280;10465;42.686;23.364;2024-01-30T12:44:57;96836.56;;;8.81;35.54
20612;BME280;10465;42.686;23.364;2024-01-30T12:47:23;96819.69;;;8.44;35.26
20612;BME280;10465;42.686;23.364;2024-01-30T12:49:49;96822.63;;;8.30;36.11
20612;BME280;10465;42.686;23.364;2024-01-30T12:52:18;96832.41;;;8.13;36.45
20612;BME280;10465;42.686;23.364;2024-01-30T12:54:44;96834.31;;;7.84;36.97
20612;BME280;10465;42.686;23.364;2024-01-30T12:57:09;96802.66;;;7.50;37.70